Time;durP1;ratioP1;P1;durP2;ratioP2;P2;SDS_P1;SDS_P2;PMS_P1;PMS_P2;Temp;Humidity;BMP_temperature;BMP_pressure;BME280_temperature;BME280_humidity;BME280_pressure;Samples;Min_cycle;Max_cycle;Signal;HPM_P1;HPM_P2
2021/10/05 00:00:26;;;;;;;1.80;0.80;;;;;;;19.28;65.02;99640.22;4987445;28;20079;-61
2021/10/05 00:02:51;;;;;;;2.58;1.00;;;;;;;19.28;64.89;99640.22;4978889;28;20038;-63
2021/10/05 00:05:17;;;;;;;3.00;0.90;;;;;;;19.28;64.99;99638.38;5007753;28;20042;-61
2021/10/05 00:07:43;;;;;;;2.75;1.00;;;;;;;19.28;65.03;99637.56;5009034;28;20475;-61
2021/10/05 00:10:10;;;;;;;2.00;0.80;;;;;;;19.29;64.71;99639.19;5008975;28;20483;-62
2021/10/05 00:12:35;;;;;;;2.72;1.00;;;;;;;19.27;64.68;99639.41;5008871;28;20052;-61
2021/10/05 00:15:04;;;;;;;1.63;0.90;;;;;;;19.28;64.80;99638.38;5008279;28;20515;-61
2021/10/05 00:17:29;;;;;;;1.80;0.90;;;;;;;19.28;65.01;99640.22;5009088;28;20037;-61
2021/10/05 00:19:54;;;;;;;2.13;1.00;;;;;;;19.27;65.06;99642.06;5008619;28;20095;-61
2021/10/05 00:22:20;;;;;;;2.45;0.90;;;;;;;19.27;65.12;99647.41;5006770;28;20129;-62
2021/10/05 00:24:46;;;;;;;3.60;0.85;;;;;;;19.28;65.03;99656.19;4988337;28;20038;-61
2021/10/05 00:27:11;;;;;;;2.05;0.90;;;;;;;19.28;64.90;99669.47;4989012;28;20042;-62
2021/10/05 00:29:37;;;;;;;2.63;0.77;;;;;;;19.27;65.17;99666.00;4987661;28;20038;-61
2021/10/05 00:32:04;;;;;;;2.22;0.88;;;;;;;19.27;65.34;99675.84;4989375;28;20066;-61
2021/10/05 00:34:30;;;;;;;3.20;0.85;;;;;;;19.27;65.04;99676.66;4989400;28;20041;-61
2021/10/05 00:36:55;;;;;;;2.17;0.80;;;;;;;19.27;65.04;99673.97;4992349;28;20562;-61
2021/10/05 00:39:21;;;;;;;1.73;0.77;;;;;;;19.27;65.35;99675.84;5007830;28;20046;-61
2021/10/05 00:41:48;;;;;;;1.80;0.88;;;;;;;19.27;65.29;99673.16;5009117;28;20162;-62
2021/10/05 00:44:13;;;;;;;3.13;1.10;;;;;;;19.26;64.83;99677.69;4990181;28;20775;-61
2021/10/05 00:46:39;;;;;;;1.70;0.70;;;;;;;19.27;64.84;99675.84;4989903;28;20051;-61
2021/10/05 00:49:04;;;;;;;2.03;0.80;;;;;;;19.26;64.94;99685.66;4989322;28;20373;-61
2021/10/05 00:51:30;;;;;;;1.70;0.80;;;;;;;19.25;65.17;99686.69;4972068;28;20035;-61
2021/10/05 00:53:56;;;;;;;2.03;0.90;;;;;;;19.27;64.87;99681.16;4990763;28;20039;-61
2021/10/05 00:56:22;;;;;;;2.40;1.00;;;;;;;19.27;64.94;99686.47;4994028;28;20065;-61
2021/10/05 00:58:48;;;;;;;2.05;0.88;;;;;;;19.27;64.82;99686.47;5014675;28;20060;-61
2021/10/05 01:01:15;;;;;;;2.22;1.10;;;;;;;19.27;65.08;99691.78;5029500;28;20305;-61
2021/10/05 01:03:41;;;;;;;1.55;0.90;;;;;;;19.26;64.80;99695.47;5018322;28;20069;-61
2021/10/05 01:06:06;;;;;;;2.72;1.05;;;;;;;19.26;65.14;99701.59;5011770;28;20073;-62
2021/10/05 01:08:32;;;;;;;2.70;1.17;;;;;;;19.27;65.04;99702.41;5012353;28;20033;-61
2021/10/05 01:10:59;;;;;;;1.73;0.98;;;;;;;19.27;64.59;99707.75;4994045;28;20029;-61
2021/10/05 01:13:24;;;;;;;1.92;1.10;;;;;;;19.27;65.06;99707.75;5012107;28;20476;-61
2021/10/05 01:15:50;;;;;;;2.03;0.80;;;;;;;19.26;64.87;99706.94;4994285;28;20030;-61
2021/10/05 01:18:15;;;;;;;1.38;0.60;;;;;;;19.26;64.69;99701.59;5030428;28;20073;-61
2021/10/05 01:20:58;;;;;;;1.40;0.85;;;;;;;19.24;65.06;99710.81;5032351;28;20061;-61
2021/10/05 01:23:25;;;;;;;1.48;0.80;;;;;;;19.26;64.69;99709.59;5020254;28;20045;-62
2021/10/05 01:25:51;;;;;;;1.35;0.75;;;;;;;19.26;64.87;99700.78;4994180;28;20132;-61
2021/10/05 01:28:19;;;;;;;2.08;1.00;;;;;;;19.25;64.76;99707.13;4993754;28;20471;-62
2021/10/05 01:30:44;;;;;;;2.20;1.00;;;;;;;19.25;64.73;99702.66;5012227;28;20033;-61
2021/10/05 01:33:10;;;;;;;2.10;0.80;;;;;;;19.25;65.09;99713.28;4961938;28;20387;-61
2021/10/05 01:35:35;;;;;;;1.33;0.70;;;;;;;19.25;64.60;99721.25;4994132;28;20773;-61
2021/10/05 01:38:02;;;;;;;1.40;0.80;;;;;;;19.25;64.76;99715.09;4993761;28;20046;-62
2021/10/05 01:40:28;;;;;;;2.22;1.00;;;;;;;19.25;64.66;99715.09;4994381;28;20034;-65
2021/10/05 01:42:53;;;;;;;2.28;1.05;;;;;;;19.24;64.56;99713.47;5016136;28;20099;-61
2021/10/05 01:45:18;;;;;;;1.92;0.65;;;;;;;19.24;64.50;99714.28;5012115;28;20048;-61
2021/10/05 01:47:44;;;;;;;1.30;0.80;;;;;;;19.24;64.61;99718.78;5013013;28;20044;-61
2021/10/05 01:50:10;;;;;;;2.85;0.95;;;;;;;19.23;64.83;99722.47;5030462;28;20112;-61
2021/10/05 01:52:36;;;;;;;1.55;0.80;;;;;;;19.24;64.72;99724.09;4996121;28;20076;-62
2021/10/05 01:55:04;;;;;;;2.50;0.95;;;;;;;19.24;64.69;99727.56;5030590;28;20029;-62
2021/10/05 01:57:29;;;;;;;2.53;0.90;;;;;;;19.26;64.96;99727.38;5012362;28;20479;-61
2021/10/05 01:59:55;;;;;;;2.38;0.90;;;;;;;19.25;64.93;99725.72;5012007;28;20060;-61
2021/10/05 02:02:20;;;;;;;1.63;0.93;;;;;;;19.24;64.71;99729.44;5028820;28;20046;-61
2021/10/05 02:04:46;;;;;;;3.15;1.13;;;;;;;19.24;64.70;99745.38;5009262;28;20132;-62
2021/10/05 02:07:12;;;;;;;2.63;1.08;;;;;;;19.23;64.78;99733.94;5010328;28;20309;-61
2021/10/05 02:09:39;;;;;;;1.83;0.80;;;;;;;19.22;64.98;99748.25;5011439;28;20138;-61
2021/10/05 02:12:04;;;;;;;2.22;0.77;;;;;;;19.22;64.59;99756.22;5009736;28;20498;-61
2021/10/05 02:14:30;;;;;;;2.20;0.80;;;;;;;19.22;64.99;99761.56;4994263;28;20041;-62
2021/10/05 02:16:55;;;;;;;1.83;0.80;;;;;;;19.22;64.44;99760.75;5024039;28;20054;-61
2021/10/05 02:19:21;;;;;;;1.92;0.85;;;;;;;19.22;64.88;99766.06;5030334;28;20048;-61
2021/10/05 02:21:47;;;;;;;1.85;0.95;;;;;;;19.21;64.56;99770.56;5030580;28;20052;-61
2021/10/05 02:26:44;;;;;;;2.33;0.95;;;;;;;19.21;64.46;99783.03;5030854;28;20037;-61
2021/10/05 02:29:10;;;;;;;1.85;0.80;;;;;;;19.20;64.49;99784.88;5029328;28;20041;-61
2021/10/05 02:31:35;;;;;;;2.47;0.80;;;;;;;19.19;64.82;99787.78;5002649;28;20050;-61
2021/10/05 02:34:01;;;;;;;1.88;0.90;;;;;;;19.19;64.70;99795.75;5010340;28;20037;-62
2021/10/05 02:36:26;;;;;;;1.42;0.80;;;;;;;19.19;65.00;99801.06;4993182;28;20048;-61
2021/10/05 02:38:52;;;;;;;2.17;0.82;;;;;;;19.19;64.44;99803.72;4992953;28;20041;-61
2021/10/05 02:41:18;;;;;;;2.22;0.90;;;;;;;19.19;64.70;99801.06;5010086;28;20029;-61
2021/10/05 02:43:43;;;;;;;1.30;0.80;;;;;;;19.20;64.86;99813.31;5009996;28;20430;-61
2021/10/05 02:46:08;;;;;;;2.88;0.70;;;;;;;19.18;64.59;99824.19;4992190;28;20041;-61
2021/10/05 02:48:34;;;;;;;1.05;0.70;;;;;;;19.18;64.37;99824.19;5010494;28;20030;-61
2021/10/05 02:50:59;;;;;;;1.77;0.80;;;;;;;19.19;64.79;99828.47;5017019;28;20424;-61
2021/10/05 02:53:25;;;;;;;1.58;0.90;;;;;;;19.19;64.30;99825.81;5029912;28;20045;-62
2021/10/05 02:55:50;;;;;;;2.20;0.82;;;;;;;19.18;64.76;99829.50;5030073;28;20040;-61
2021/10/05 02:58:17;;;;;;;1.77;0.80;;;;;;;19.18;64.75;99829.50;5011931;28;20111;-61
2021/10/05 03:00:43;;;;;;;1.95;0.80;;;;;;;19.19;64.75;99830.31;5011723;28;20478;-61
2021/10/05 03:03:09;;;;;;;2.67;0.82;;;;;;;19.19;64.61;99844.41;5011863;28;20033;-61
2021/10/05 03:05:35;;;;;;;1.55;0.80;;;;;;;19.18;64.55;99847.28;5030098;28;20033;-61
2021/10/05 03:08:00;;;;;;;1.25;0.90;;;;;;;19.18;64.55;99856.09;5029649;28;20041;-62
2021/10/05 03:10:26;;;;;;;1.17;0.73;;;;;;;19.19;64.70;99859.56;5027825;28;20068;-61
2021/10/05 03:12:52;;;;;;;1.35;0.65;;;;;;;19.18;64.67;99858.75;5009763;28;20061;-61
2021/10/05 03:15:17;;;;;;;1.58;0.80;;;;;;;19.19;64.60;99860.38;5009420;28;20157;-61
2021/10/05 03:17:43;;;;;;;1.73;0.80;;;;;;;19.19;64.38;99867.53;5009387;28;20034;-61
2021/10/05 03:20:09;;;;;;;1.83;0.98;;;;;;;19.19;64.78;99867.53;5009626;28;20080;-61
2021/10/05 03:22:34;;;;;;;2.00;0.68;;;;;;;19.19;64.74;99864.88;5010274;28;20426;-61
2021/10/05 03:25:00;;;;;;;1.33;0.73;;;;;;;19.19;64.43;99876.31;4992337;28;20045;-63
2021/10/05 03:27:25;;;;;;;1.17;0.73;;;;;;;19.19;64.30;99878.16;5009668;28;20048;-59
2021/10/05 03:29:51;;;;;;;1.13;0.65;;;;;;;19.19;64.44;99883.47;5009640;28;20042;-59
2021/10/05 03:32:16;;;;;;;1.58;0.70;;;;;;;19.18;64.36;99884.50;5009559;28;20045;-59
2021/10/05 03:34:42;;;;;;;1.60;0.77;;;;;;;19.18;64.39;99890.66;5029279;28;20116;-59
2021/10/05 03:37:07;;;;;;;0.90;0.60;;;;;;;19.19;64.50;99896.78;5029275;28;20120;-59
2021/10/05 03:39:33;;;;;;;1.75;0.98;;;;;;;19.19;64.59;99899.44;5011127;28;20079;-59
2021/10/05 03:41:58;;;;;;;1.33;0.70;;;;;;;19.19;64.66;99905.56;5029114;28;20472;-59
2021/10/05 03:44:24;;;;;;;1.05;0.60;;;;;;;19.18;64.80;99903.94;5028608;28;20129;-59
2021/10/05 03:46:50;;;;;;;1.88;0.80;;;;;;;19.18;64.66;99917.22;5011584;28;20033;-60
2021/10/05 03:49:15;;;;;;;1.45;0.68;;;;;;;19.18;64.36;99914.56;5029202;28;20368;-60
2021/10/05 03:51:45;;;;;;;1.45;0.70;;;;;;;19.17;64.55;99922.75;5017494;28;20042;-60
2021/10/05 03:54:10;;;;;;;1.70;0.65;;;;;;;19.18;64.54;99925.22;5009188;28;20112;-60
2021/10/05 03:56:36;;;;;;;1.35;0.80;;;;;;;19.17;64.33;99931.56;4992117;28;20471;-60
2021/10/05 03:59:01;;;;;;;2.05;0.70;;;;;;;19.18;64.70;99938.50;4987752;28;20054;-62
2021/10/05 04:01:27;;;;;;;1.92;0.80;;;;;;;19.18;64.50;99935.03;4989428;28;20068;-60
2021/10/05 04:03:52;;;;;;;0.90;0.60;;;;;;;19.17;64.36;99939.53;4990026;28;20110;-60
2021/10/05 04:06:18;;;;;;;1.00;0.70;;;;;;;19.17;64.45;99950.16;4988658;28;20062;-60
2021/10/05 04:08:43;;;;;;;1.42;1.00;;;;;;;19.16;64.73;99945.88;4988703;28;20069;-60
2021/10/05 04:11:09;;;;;;;2.17;0.70;;;;;;;19.15;64.56;99945.06;4996042;28;20049;-60
2021/10/05 04:13:34;;;;;;;1.15;0.70;;;;;;;19.16;64.32;99956.50;5007979;28;20128;-60
2021/10/05 04:16:00;;;;;;;1.30;0.70;;;;;;;19.17;64.63;99952.00;5007761;28;20040;-59
2021/10/05 04:18:25;;;;;;;1.45;0.70;;;;;;;19.15;64.52;99961.00;5009349;28;20038;-60
2021/10/05 04:20:51;;;;;;;1.38;0.70;;;;;;;19.15;64.46;99969.00;5009293;28;20419;-60
2021/10/05 04:23:16;;;;;;;1.70;0.82;;;;;;;19.15;64.20;99971.66;5009218;28;20038;-60
2021/10/05 04:25:42;;;;;;;0.95;0.60;;;;;;;19.15;64.18;99968.19;5009098;28;20057;-60
2021/10/05 04:28:07;;;;;;;1.48;0.70;;;;;;;19.15;64.30;99971.66;5009617;28;20030;-60
2021/10/05 04:30:33;;;;;;;0.80;0.57;;;;;;;19.15;64.31;99978.81;5009047;28;20055;-60
2021/10/05 04:32:58;;;;;;;4.22;1.08;;;;;;;19.14;64.31;99983.31;4975990;28;20437;-60
2021/10/05 04:35:24;;;;;;;1.40;0.77;;;;;;;19.15;64.08;99984.13;4991784;28;20042;-60
2021/10/05 04:37:50;;;;;;;1.15;0.73;;;;;;;19.15;64.26;99989.44;4993304;28;20467;-60
2021/10/05 04:40:15;;;;;;;1.15;0.70;;;;;;;19.14;64.05;99985.16;4991863;28;20050;-60
2021/10/05 04:42:41;;;;;;;0.98;0.70;;;;;;;19.14;63.93;99990.47;4991552;28;20081;-60
2021/10/05 04:45:08;;;;;;;1.83;0.70;;;;;;;19.14;63.90;99991.28;4992863;28;20070;-60
2021/10/05 04:47:35;;;;;;;1.50;0.70;;;;;;;19.14;64.03;99996.59;4992110;28;20066;-60
2021/10/05 04:50:02;;;;;;;1.02;0.73;;;;;;;19.14;64.10;100001.13;4993265;28;20049;-60
2021/10/05 04:52:28;;;;;;;1.63;0.73;;;;;;;19.14;64.02;100009.91;5012523;28;20034;-60
2021/10/05 04:54:53;;;;;;;0.82;0.70;;;;;;;19.14;64.31;100009.09;5013010;28;20041;-60
2021/10/05 04:57:19;;;;;;;2.60;1.02;;;;;;;19.13;64.43;100005.63;5011806;28;20026;-60
2021/10/05 04:59:44;;;;;;;1.92;0.80;;;;;;;19.13;64.15;100012.78;5023181;28;20136;-60
2021/10/05 05:02:10;;;;;;;2.03;0.68;;;;;;;19.12;63.92;100011.16;5032188;28;20040;-60
2021/10/05 05:04:35;;;;;;;0.95;0.70;;;;;;;19.13;64.07;100015.44;5011919;28;20047;-60
2021/10/05 05:07:01;;;;;;;2.97;0.77;;;;;;;19.11;63.83;100013.00;4978689;28;20084;-60
2021/10/05 05:09:26;;;;;;;0.75;0.68;;;;;;;19.11;64.21;100018.31;4994474;28;20042;-60
2021/10/05 05:11:52;;;;;;;1.48;0.70;;;;;;;19.11;64.13;100023.63;4978459;28;20042;-62
2021/10/05 05:14:18;;;;;;;1.42;0.70;;;;;;;19.11;63.91;100023.63;4977403;28;20034;-60
2021/10/05 05:16:44;;;;;;;1.48;0.70;;;;;;;19.10;64.10;100032.63;4994698;28;20097;-60
2021/10/05 05:19:09;;;;;;;2.25;0.75;;;;;;;19.10;64.05;100024.66;5012033;28;20033;-60
2021/10/05 05:21:35;;;;;;;1.45;0.80;;;;;;;19.11;63.91;100031.59;5012438;28;20041;-60
2021/10/05 05:24:01;;;;;;;1.30;0.85;;;;;;;19.12;63.95;100037.72;5014617;28;20076;-60
2021/10/05 05:26:27;;;;;;;1.63;0.80;;;;;;;19.12;63.88;100040.38;4997559;28;20131;-60
2021/10/05 05:28:54;;;;;;;1.20;0.80;;;;;;;19.10;63.94;100040.59;5031021;28;20470;-60
2021/10/05 05:31:20;;;;;;;2.60;0.90;;;;;;;19.11;64.03;100047.56;5013470;28;20038;-60
2021/10/05 05:33:46;;;;;;;1.80;1.00;;;;;;;19.10;63.79;100051.25;5013798;28;20044;-59
2021/10/05 05:36:11;;;;;;;1.30;0.82;;;;;;;19.11;63.87;100055.53;5013710;28;20467;-60
2021/10/05 05:38:38;;;;;;;2.30;0.90;;;;;;;19.11;64.08;100060.84;5013147;28;20121;-61
2021/10/05 05:41:03;;;;;;;2.38;0.70;;;;;;;19.10;63.94;100058.41;5011570;28;20038;-60
2021/10/05 05:43:29;;;;;;;1.38;0.68;;;;;;;19.10;63.92;100061.88;5010694;28;20454;-60
2021/10/05 05:45:55;;;;;;;1.52;0.90;;;;;;;19.10;64.26;100061.88;5011261;28;20109;-59
2021/10/05 05:48:20;;;;;;;2.58;0.80;;;;;;;19.13;63.85;100076.56;4999071;28;20112;-59
2021/10/05 05:50:46;;;;;;;2.05;0.90;;;;;;;19.14;63.90;100078.22;5013355;28;20129;-60
2021/10/05 05:53:11;;;;;;;1.65;0.80;;;;;;;19.14;63.97;100087.00;5010049;28;20030;-60
2021/10/05 05:55:37;;;;;;;2.00;1.00;;;;;;;19.14;64.07;100092.31;4976036;28;20037;-60
2021/10/05 05:58:13;;;;;;;2.00;0.88;;;;;;;19.12;63.73;100093.56;5009951;28;20120;-60
2021/10/05 06:00:40;;;;;;;1.88;0.80;;;;;;;19.12;63.85;100097.03;5009899;28;20050;-60
2021/10/05 06:03:05;;;;;;;2.03;0.80;;;;;;;19.12;63.67;100097.03;4992760;28;20471;-60
2021/10/05 06:05:31;;;;;;;2.05;0.90;;;;;;;19.12;63.83;100109.50;5010037;28;20038;-60
2021/10/05 06:07:57;;;;;;;2.00;0.70;;;;;;;19.12;63.97;100112.97;5010540;28;20065;-61
2021/10/05 06:10:23;;;;;;;1.38;0.80;;;;;;;19.12;63.85;100120.97;4993485;28;20044;-60
2021/10/05 06:12:48;;;;;;;1.55;0.70;;;;;;;19.11;64.01;100116.66;4993401;28;20065;-60
2021/10/05 06:15:16;;;;;;;1.42;1.00;;;;;;;19.12;63.55;100128.94;4992867;28;20077;-60
2021/10/05 06:17:43;;;;;;;2.10;0.90;;;;;;;19.11;63.59;100124.66;5010974;28;20052;-61
2021/10/05 06:20:14;;;;;;;2.80;1.00;;;;;;;19.12;63.85;100130.78;4997321;28;20033;-60
2021/10/05 06:22:41;;;;;;;3.30;0.90;;;;;;;19.10;63.65;100130.19;5030448;28;20064;-60
2021/10/05 06:25:13;;;;;;;1.30;0.70;;;;;;;19.10;63.49;100144.28;5030765;28;20061;-61
2021/10/05 06:27:39;;;;;;;3.05;0.90;;;;;;;19.10;63.64;100149.59;5030327;28;20088;-60
2021/10/05 06:30:07;;;;;;;2.80;0.90;;;;;;;19.10;63.46;100160.22;5030116;28;20056;-60
2021/10/05 06:32:33;;;;;;;2.03;1.00;;;;;;;19.10;63.29;100162.88;5030636;28;20038;-60
2021/10/05 06:34:59;;;;;;;2.20;0.70;;;;;;;19.09;63.36;100166.56;5012332;28;20124;-60
2021/10/05 06:37:24;;;;;;;0.88;0.70;;;;;;;19.09;63.67;100171.91;5012604;28;20033;-60
2021/10/05 06:39:50;;;;;;;1.92;0.88;;;;;;;19.09;63.63;100173.72;5010700;28;20030;-61
2021/10/05 06:42:15;;;;;;;2.45;0.73;;;;;;;19.08;63.31;100178.22;4976494;28;20466;-61
2021/10/05 06:44:41;;;;;;;2.88;0.70;;;;;;;19.08;63.51;100177.38;4992359;28;20041;-60
2021/10/05 06:47:07;;;;;;;2.25;1.15;;;;;;;19.08;63.16;100191.50;5010685;28;20530;-60
2021/10/05 06:49:33;;;;;;;2.33;0.70;;;;;;;19.08;63.50;100193.34;5010140;28;20037;-60
2021/10/05 06:52:00;;;;;;;3.10;0.80;;;;;;;19.08;63.60;100186.19;4976071;28;20406;-60
2021/10/05 06:54:26;;;;;;;3.20;0.82;;;;;;;19.07;63.68;100189.88;5009736;28;20573;-60
2021/10/05 06:56:51;;;;;;;3.88;0.82;;;;;;;19.07;63.51;100189.06;5010083;28;20038;-60
2021/10/05 06:59:17;;;;;;;1.45;0.98;;;;;;;19.07;63.18;100199.69;5008774;28;20038;-61
2021/10/05 07:01:42;;;;;;;1.48;0.65;;;;;;;19.08;63.30;100206.63;5004445;28;20040;-60
2021/10/05 07:04:08;;;;;;;2.38;0.90;;;;;;;19.07;63.40;100208.47;5030159;28;20426;-60
2021/10/05 07:06:33;;;;;;;3.22;0.93;;;;;;;19.07;63.43;100213.78;5031112;28;20390;-60
2021/10/05 07:08:59;;;;;;;4.28;1.17;;;;;;;19.08;63.67;100225.25;5002952;28;20052;-61
2021/10/05 07:11:24;;;;;;;3.85;0.90;;;;;;;19.08;63.58;100222.59;5008403;28;20121;-60
2021/10/05 07:13:50;;;;;;;3.72;1.00;;;;;;;19.07;63.96;100231.59;4991705;28;20136;-60
2021/10/05 07:16:16;;;;;;;6.47;1.40;;;;;;;19.08;63.81;100239.34;5009028;28;20497;-60
2021/10/05 07:18:41;;;;;;;4.45;1.00;;;;;;;19.08;64.08;100238.53;4992384;28;20065;-60
2021/10/05 07:21:07;;;;;;;2.92;1.20;;;;;;;19.09;64.23;100240.16;4992399;28;20491;-60
2021/10/05 07:23:32;;;;;;;4.53;1.35;;;;;;;19.08;63.96;100247.31;4994331;28;20044;-60
2021/10/05 07:25:57;;;;;;;4.10;1.13;;;;;;;19.04;63.13;100251.44;4973615;28;20056;-60
2021/10/05 07:28:23;;;;;;;2.78;1.40;;;;;;;18.97;62.52;100255.94;4994991;28;20057;-60
2021/10/05 07:30:48;;;;;;;4.43;1.30;;;;;;;18.91;61.81;100254.09;5026815;28;20037;-60
2021/10/05 07:33:14;;;;;;;4.78;1.38;;;;;;;18.87;61.67;100252.06;4985887;28;20479;-60
2021/10/05 07:35:40;;;;;;;4.88;1.10;;;;;;;18.83;60.81;100254.31;4992091;28;20153;-59
2021/10/05 07:38:06;;;;;;;5.25;1.00;;;;;;;18.79;60.67;100256.56;5009604;28;20041;-60
2021/10/05 07:40:33;;;;;;;5.97;1.13;;;;;;;18.78;60.48;100259.44;5009554;28;20041;-61
2021/10/05 07:43:00;;;;;;;5.68;1.08;;;;;;;18.76;59.95;100267.59;5009414;28;20171;-61
2021/10/05 07:45:27;;;;;;;7.43;1.20;;;;;;;18.78;59.96;100270.06;4992502;28;20038;-61
2021/10/05 07:47:52;;;;;;;3.47;0.90;;;;;;;18.76;59.48;100270.25;5007984;28;20069;-61
2021/10/05 07:50:18;;;;;;;4.90;1.00;;;;;;;18.77;59.42;100281.69;5006628;28;20164;-61
2021/10/05 07:52:44;;;;;;;5.85;1.20;;;;;;;18.78;59.31;100283.34;5006801;28;20064;-60
2021/10/05 07:55:10;;;;;;;11.40;1.85;;;;;;;18.79;59.33;100292.97;5027365;28;20109;-61
2021/10/05 07:57:36;;;;;;;5.20;1.35;;;;;;;18.78;59.02;100292.16;5028509;28;20033;-61
2021/10/05 08:00:04;;;;;;;9.32;1.13;;;;;;;18.77;58.68;100297.63;5028854;28;20431;-60
2021/10/05 08:02:29;;;;;;;12.30;1.58;;;;;;;18.76;58.87;100296.81;5028682;28;20033;-60
2021/10/05 08:04:56;;;;;;;4.90;1.15;;;;;;;18.74;58.48;100296.22;5020625;28;20372;-60
2021/10/05 08:07:26;;;;;;;9.38;1.42;;;;;;;18.72;58.29;100295.59;5012765;28;20047;-60
2021/10/05 08:09:52;;;;;;;4.55;1.10;;;;;;;18.71;57.86;100298.47;5013043;28;20234;-60
2021/10/05 08:12:17;;;;;;;4.15;1.13;;;;;;;18.70;58.04;100296.81;5012667;28;20121;-62
2021/10/05 08:14:43;;;;;;;5.95;1.02;;;;;;;18.68;57.45;100299.69;5013020;28;20026;-59
2021/10/05 08:17:08;;;;;;;5.65;1.20;;;;;;;18.67;57.70;100302.56;4996033;28;20030;-59
2021/10/05 08:19:34;;;;;;;3.92;1.00;;;;;;;18.66;57.34;100303.56;5013078;28;20038;-60
2021/10/05 08:21:59;;;;;;;3.80;1.20;;;;;;;18.65;57.06;100313.38;5013191;28;20482;-60
2021/10/05 08:24:25;;;;;;;4.38;1.10;;;;;;;18.63;57.02;100307.47;5012950;28;20026;-59
2021/10/05 08:26:51;;;;;;;4.07;1.10;;;;;;;18.64;56.94;100300.31;5013205;28;20080;-59
2021/10/05 08:29:18;;;;;;;3.50;0.90;;;;;;;18.66;56.93;100312.34;5012073;28;20069;-60
2021/10/05 08:31:46;;;;;;;3.78;0.80;;;;;;;18.70;56.82;100310.09;5013016;28;20038;-59
2021/10/05 08:34:11;;;;;;;4.72;1.10;;;;;;;18.70;57.19;100313.59;5013270;28;20544;-59
2021/10/05 08:36:37;;;;;;;2.33;0.90;;;;;;;18.73;56.85;100315.00;5012852;28;20109;-59
2021/10/05 08:39:02;;;;;;;3.60;1.08;;;;;;;18.75;56.81;100319.09;4995293;28;20046;-59
2021/10/05 08:41:28;;;;;;;4.00;1.00;;;;;;;18.78;57.04;100326.69;5012745;28;20034;-59
2021/10/05 08:43:54;;;;;;;2.30;0.80;;;;;;;18.80;56.76;100329.13;5012256;28;20506;-59
2021/10/05 08:46:19;;;;;;;1.98;0.80;;;;;;;18.82;57.09;100332.41;5012213;28;20030;-59
2021/10/05 08:48:46;;;;;;;3.85;1.35;;;;;;;18.83;56.84;100334.84;5012631;28;20026;-59
2021/10/05 08:51:12;;;;;;;3.20;1.20;;;;;;;18.85;56.81;100342.63;5012608;28;20471;-59
2021/10/05 08:53:38;;;;;;;2.80;0.90;;;;;;;18.86;56.62;100346.91;5012381;28;20026;-60
2021/10/05 08:56:09;;;;;;;3.28;1.00;;;;;;;18.86;56.72;100346.91;4994954;28;20030;-59
2021/10/05 08:58:36;;;;;;;1.48;0.80;;;;;;;18.89;56.84;100356.31;5011967;28;20897;-59
2021/10/05 09:01:16;;;;;;;2.33;1.02;;;;;;;18.85;56.87;100366.53;5012169;28;20168;-59
2021/10/05 09:03:52;;;;;;;2.63;1.08;;;;;;;18.89;56.97;100372.25;5012656;28;20030;-59
2021/10/05 09:06:20;;;;;;;4.50;1.20;;;;;;;18.91;57.05;100373.69;5012552;28;20227;-60
2021/10/05 09:08:47;;;;;;;4.03;1.15;;;;;;;18.91;57.03;100368.38;5011888;28;20460;-59
2021/10/05 09:11:14;;;;;;;1.52;0.75;;;;;;;18.94;56.73;100386.59;5012317;28;20091;-60
2021/10/05 09:13:44;;;;;;;2.17;0.90;;;;;;;18.92;56.84;100391.28;5011093;28;20042;-60
2021/10/05 09:16:29;;;;;;;2.50;1.00;;;;;;;18.91;56.94;100396.78;5011945;28;20084;-59
2021/10/05 09:18:58;;;;;;;6.25;1.10;;;;;;;18.95;56.82;100395.41;5012545;28;20037;-59
2021/10/05 09:21:27;;;;;;;3.33;1.08;;;;;;;18.95;56.95;100395.41;5012228;28;20033;-60
2021/10/05 09:23:58;;;;;;;2.53;0.70;;;;;;;18.96;56.72;100392.53;5012249;28;20033;-61
2021/10/05 09:26:52;;;;;;;2.90;1.10;;;;;;;18.93;56.98;100408.03;5011946;28;20709;-60
2021/10/05 09:29:20;;;;;;;3.90;1.00;;;;;;;18.98;57.04;100413.59;5011462;28;20065;-62
2021/10/05 09:31:51;;;;;;;2.80;0.90;;;;;;;18.99;56.91;100412.56;4994559;28;20030;-59
2021/10/05 09:34:18;;;;;;;2.03;0.80;;;;;;;19.00;56.72;100423.00;5012284;28;20042;-59
2021/10/05 09:36:43;;;;;;;2.72;0.80;;;;;;;19.00;56.66;100430.97;4994601;28;20084;-59
2021/10/05 09:39:09;;;;;;;3.33;0.88;;;;;;;19.00;56.74;100433.63;5011991;28;20037;-60
2021/10/05 09:41:35;;;;;;;1.95;0.82;;;;;;;19.01;56.76;100440.59;5011696;28;20030;-60
2021/10/05 09:44:05;;;;;;;3.22;0.80;;;;;;;19.02;56.50;100444.06;5011465;28;20056;-60
2021/10/05 09:46:31;;;;;;;2.25;0.80;;;;;;;19.02;56.59;100444.88;5011398;28;20073;-60
2021/10/05 09:49:02;;;;;;;1.45;1.13;;;;;;;19.02;56.76;100450.19;5011787;28;20037;-60
2021/10/05 09:51:27;;;;;;;0.88;0.70;;;;;;;19.03;56.51;100462.47;5011538;28;20033;-61
2021/10/05 09:53:55;;;;;;;2.83;0.80;;;;;;;19.04;56.31;100468.59;5011756;28;20056;-60
2021/10/05 09:56:22;;;;;;;2.20;0.80;;;;;;;19.02;56.45;100476.78;5011049;28;20424;-60
2021/10/05 09:58:49;;;;;;;2.05;0.73;;;;;;;19.03;56.59;100482.91;5010886;28;20050;-60
2021/10/05 10:01:17;;;;;;;2.55;0.70;;;;;;;19.02;56.59;100475.97;5011067;28;20129;-60
2021/10/05 10:03:43;;;;;;;2.25;0.93;;;;;;;19.01;56.47;100480.44;5011338;28;20076;-60
2021/10/05 10:06:09;;;;;;;2.38;0.85;;;;;;;19.02;56.26;100475.97;4993405;28;20112;-60
2021/10/05 10:08:36;;;;;;;3.08;1.00;;;;;;;19.01;56.20;100477.78;4977224;28;20081;-60
2021/10/05 10:11:02;;;;;;;3.65;0.93;;;;;;;19.01;56.13;100488.44;5011168;28;20041;-60
2021/10/05 10:13:28;;;;;;;2.42;0.70;;;;;;;19.01;56.51;100492.94;5010512;28;20489;-60
2021/10/05 10:15:57;;;;;;;2.65;0.85;;;;;;;19.00;56.44;100493.94;5010367;28;20503;-60
2021/10/05 10:18:23;;;;;;;3.63;0.90;;;;;;;18.99;56.22;100498.44;5010986;28;20026;-60
2021/10/05 10:21:01;;;;;;;2.70;0.73;;;;;;;18.96;56.14;100500.69;5011144;28;20041;-60
2021/10/05 10:23:29;;;;;;;2.88;0.95;;;;;;;18.99;56.08;100503.75;5010959;28;20042;-60
2021/10/05 10:26:09;;;;;;;1.13;0.60;;;;;;;18.94;56.31;100508.88;5010226;28;20061;-60
2021/10/05 10:28:41;;;;;;;2.90;0.60;;;;;;;18.98;56.07;100518.06;4992763;28;20414;-60
2021/10/05 10:31:12;;;;;;;3.80;0.88;;;;;;;18.98;55.83;100514.59;5010738;28;20057;-60
2021/10/05 10:33:51;;;;;;;1.85;0.73;;;;;;;18.94;55.85;100522.16;5010671;28;20064;-61
2021/10/05 10:36:41;;;;;;;3.47;0.70;;;;;;;18.94;56.05;100526.66;5010978;28;20022;-60
2021/10/05 10:39:13;;;;;;;1.55;0.60;;;;;;;18.95;56.09;100529.13;5010871;28;20121;-60
2021/10/05 10:41:43;;;;;;;2.65;0.90;;;;;;;18.95;55.79;100538.94;5010711;28;20468;-60
2021/10/05 10:44:12;;;;;;;1.50;0.52;;;;;;;18.94;56.19;100527.47;5009874;28;20089;-60
2021/10/05 10:46:40;;;;;;;1.38;0.60;;;;;;;18.95;56.04;100536.28;5010357;28;20472;-61
2021/10/05 10:49:19;;;;;;;3.03;0.77;;;;;;;18.91;55.80;100541.13;5010639;28;20137;-60
2021/10/05 10:51:47;;;;;;;1.58;0.60;;;;;;;18.94;55.79;100538.09;5010450;28;20471;-61
2021/10/05 10:54:27;;;;;;;3.65;0.80;;;;;;;18.93;55.60;100547.06;5010432;28;20045;-60
2021/10/05 10:57:06;;;;;;;2.58;0.70;;;;;;;18.92;55.77;100549.94;5010178;28;20034;-60
2021/10/05 10:59:33;;;;;;;2.88;0.60;;;;;;;18.95;55.66;100550.38;5009584;28;20506;-60
2021/10/05 11:02:02;;;;;;;1.60;0.63;;;;;;;18.95;55.70;100547.72;5010415;28;20038;-60
2021/10/05 11:04:27;;;;;;;1.08;0.70;;;;;;;18.96;55.61;100553.84;5010279;28;20033;-60
2021/10/05 11:06:57;;;;;;;2.40;0.85;;;;;;;18.96;55.81;100554.69;5010201;28;20464;-60
2021/10/05 11:09:31;;;;;;;2.15;0.70;;;;;;;18.94;55.86;100551.41;4992148;28;20084;-62
2021/10/05 11:11:57;;;;;;;0.85;0.50;;;;;;;18.96;55.65;100553.84;5010084;28;20041;-61
2021/10/05 11:14:35;;;;;;;2.53;0.70;;;;;;;18.95;55.40;100554.88;5010203;28;20041;-60
2021/10/05 11:17:04;;;;;;;1.20;0.70;;;;;;;18.94;55.39;100551.41;5010078;28;20026;-60
2021/10/05 11:19:34;;;;;;;2.33;0.82;;;;;;;18.93;55.27;100555.03;5009959;28;20483;-60
2021/10/05 11:22:03;;;;;;;3.35;0.60;;;;;;;18.93;55.65;100563.03;5010172;28;20034;-61
2021/10/05 11:24:45;;;;;;;2.92;0.77;;;;;;;18.91;55.22;100559.75;5009776;28;20076;-60
2021/10/05 11:27:22;;;;;;;2.45;0.70;;;;;;;18.92;55.17;100574.66;5009759;28;20056;-60
2021/10/05 11:29:49;;;;;;;0.73;0.50;;;;;;;18.92;55.57;100580.00;5009879;28;20021;-60